CheckWX is a tool to help pilots better visualize weather data.  It is not intended as a substitute for an official pre-flight weather briefing.

18:37:00 UTC

M02 METAR
Dickson Municipal Airport
Dickson, Tennessee, USA
Current

22 mins ago

KM02 181815Z AUTO 32008G16KT 10SM FEW028 03/M04 A3034 RMK A01
Observed
Feb-18 @ 18:15 UTC
Wind
  • 320° at 8 KTS
  • Gusting to 16 KTS
Visibility
10 SM
Flight Rules
VFR
Cloud Levels
  • Few at 2,800' AGL
Temperature
C / 37°F
Dewpoint
-4°C / 25°F
Humidity
60%
Altimeter
30.34" Hg
Pressure
1027.42 hPa
Previous

42 mins ago

KM02 181755Z AUTO 34007KT 10SM FEW028 03/M03 A3035 RMK A01
Observed
Feb-18 @ 17:55 UTC
Wind
  • 340° at 7 KTS
Visibility
10 SM
Flight Rules
VFR
Cloud Levels
  • Few at 2,800' AGL
Temperature
C / 37°F
Dewpoint
-3°C / 27°F
Humidity
65%
Altimeter
30.35" Hg
Pressure
1027.82 hPa
Previous

1 hour ago

KM02 181735Z AUTO 35008KT 10SM FEW026 02/M04 A3035 RMK A01
Observed
Feb-18 @ 17:35 UTC
Wind
  • 350° at 8 KTS
Visibility
10 SM
Flight Rules
VFR
Cloud Levels
  • Few at 2,600' AGL
Temperature
C / 36°F
Dewpoint
-4°C / 25°F
Humidity
65%
Altimeter
30.35" Hg
Pressure
1027.82 hPa